sensor_id;sensor_type;location;lat;lon;timestamp;pressure;altitude;pressure_sealevel;temperature;humidity
20013;BME280;10167;42.852;23.042;2024-01-27T00:00:38;95378.72;;;0.62;100.00
20013;BME280;10167;42.852;23.042;2024-01-27T00:03:08;95380.66;;;0.68;100.00
20013;BME280;10167;42.852;23.042;2024-01-27T00:05:42;95365.38;;;0.73;100.00
20013;BME280;10167;42.852;23.042;2024-01-27T00:08:15;95378.41;;;0.73;100.00
20013;BME280;10167;42.852;23.042;2024-01-27T00:10:44;95379.06;;;0.75;100.00
20013;BME280;10167;42.852;23.042;2024-01-27T00:13:14;95371.38;;;0.82;100.00
20013;BME280;10167;42.852;23.042;2024-01-27T00:15:45;95374.47;;;0.85;100.00
20013;BME280;10167;42.852;23.042;2024-01-27T00:18:15;95368.59;;;0.91;100.00
20013;BME280;10167;42.852;23.042;2024-01-27T00:20:47;95362.56;;;0.91;100.00
20013;BME280;10167;42.852;23.042;2024-01-27T00:23:16;95362.06;;;1.03;100.00
20013;BME280;10167;42.852;23.042;2024-01-27T00:25:46;95359.44;;;1.03;100.00
20013;BME280;10167;42.852;23.042;2024-01-27T00:28:15;95358.63;;;1.11;100.00
20013;BME280;10167;42.852;23.042;2024-01-27T00:30:46;95361.72;;;1.06;100.00
20013;BME280;10167;42.852;23.042;2024-01-27T00:33:16;95364.50;;;1.05;100.00
20013;BME280;10167;42.852;23.042;2024-01-27T00:35:49;95354.22;;;1.12;100.00
20013;BME280;10167;42.852;23.042;2024-01-27T00:38:19;95371.16;;;1.16;100.00
20013;BME280;10167;42.852;23.042;2024-01-27T00:40:49;95371.00;;;1.09;100.00
20013;BME280;10167;42.852;23.042;2024-01-27T00:43:18;95364.97;;;1.08;100.00
20013;BME280;10167;42.852;23.042;2024-01-27T00:45:49;95362.38;;;1.08;100.00
20013;BME280;10167;42.852;23.042;2024-01-27T00:48:18;95369.22;;;1.09;100.00
20013;BME280;10167;42.852;23.042;2024-01-27T00:50:50;95372.97;;;1.07;100.00
20013;BME280;10167;42.852;23.042;2024-01-27T00:53:20;95376.06;;;1.02;100.00
20013;BME280;10167;42.852;23.042;2024-01-27T00:55:49;95376.22;;;1.09;100.00
20013;BME280;10167;42.852;23.042;2024-01-27T00:58:18;95364.38;;;0.98;100.00
20013;BME280;10167;42.852;23.042;2024-01-27T01:00:48;95377.25;;;1.00;100.00
20013;BME280;10167;42.852;23.042;2024-01-27T01:03:17;95367.94;;;0.97;100.00
20013;BME280;10167;42.852;23.042;2024-01-27T01:05:49;95378.66;;;1.02;100.00
20013;BME280;10167;42.852;23.042;2024-01-27T01:08:19;95377.53;;;1.05;100.00
20013;BME280;10167;42.852;23.042;2024-01-27T01:10:49;95375.25;;;1.02;100.00
20013;BME280;10167;42.852;23.042;2024-01-27T01:13:18;95366.28;;;1.04;100.00
20013;BME280;10167;42.852;23.042;2024-01-27T01:15:48;95360.59;;;1.09;100.00
20013;BME280;10167;42.852;23.042;2024-01-27T01:18:18;95355.84;;;1.13;100.00
20013;BME280;10167;42.852;23.042;2024-01-27T01:20:49;95351.59;;;1.20;100.00
20013;BME280;10167;42.852;23.042;2024-01-27T01:23:18;95347.13;;;1.36;100.00
20013;BME280;10167;42.852;23.042;2024-01-27T01:25:49;95343.31;;;1.47;100.00
20013;BME280;10167;42.852;23.042;2024-01-27T01:28:18;95343.97;;;1.57;100.00
20013;BME280;10167;42.852;23.042;2024-01-27T01:30:48;95347.63;;;1.71;100.00
20013;BME280;10167;42.852;23.042;2024-01-27T01:33:18;95340.38;;;1.81;100.00
20013;BME280;10167;42.852;23.042;2024-01-27T01:35:49;95336.53;;;2.00;100.00
20013;BME280;10167;42.852;23.042;2024-01-27T01:38:19;95341.47;;;2.17;100.00
20013;BME280;10167;42.852;23.042;2024-01-27T01:40:49;95336.47;;;2.31;100.00
20013;BME280;10167;42.852;23.042;2024-01-27T01:43:19;95343.56;;;2.45;100.00
20013;BME280;10167;42.852;23.042;2024-01-27T01:45:48;95346.91;;;2.53;100.00
20013;BME280;10167;42.852;23.042;2024-01-27T01:48:21;95340.78;;;2.61;100.00
20013;BME280;10167;42.852;23.042;2024-01-27T01:50:53;95330.63;;;2.66;100.00
20013;BME280;10167;42.852;23.042;2024-01-27T01:53:25;95335.41;;;2.63;100.00
20013;BME280;10167;42.852;23.042;2024-01-27T01:55:55;95333.31;;;2.58;100.00
20013;BME280;10167;42.852;23.042;2024-01-27T01:58:25;95337.28;;;2.54;100.00
20013;BME280;10167;42.852;23.042;2024-01-27T02:01:02;95334.50;;;2.55;100.00
20013;BME280;10167;42.852;23.042;2024-01-27T02:03:31;95335.81;;;2.51;100.00
20013;BME280;10167;42.852;23.042;2024-01-27T02:06:03;95331.22;;;2.53;100.00
20013;BME280;10167;42.852;23.042;2024-01-27T02:08:32;95337.75;;;2.58;100.00
20013;BME280;10167;42.852;23.042;2024-01-27T02:11:02;95325.75;;;2.63;100.00
20013;BME280;10167;42.852;23.042;2024-01-27T02:13:31;95322.88;;;2.73;100.00
20013;BME280;10167;42.852;23.042;2024-01-27T02:16:02;95325.53;;;2.87;100.00
20013;BME280;10167;42.852;23.042;2024-01-27T02:18:31;95315.44;;;2.99;100.00
20013;BME280;10167;42.852;23.042;2024-01-27T02:21:03;95314.34;;;3.08;100.00
20013;BME280;10167;42.852;23.042;2024-01-27T02:23:33;95320.69;;;3.14;100.00
20013;BME280;10167;42.852;23.042;2024-01-27T02:26:04;95319.25;;;3.11;100.00
20013;BME280;10167;42.852;23.042;2024-01-27T02:28:34;95319.75;;;3.07;100.00
20013;BME280;10167;42.852;23.042;2024-01-27T02:31:05;95328.81;;;3.04;100.00
20013;BME280;10167;42.852;23.042;2024-01-27T02:33:38;95317.97;;;3.07;100.00
20013;BME280;10167;42.852;23.042;2024-01-27T02:36:08;95325.00;;;3.21;100.00
20013;BME280;10167;42.852;23.042;2024-01-27T02:38:38;95320.13;;;3.33;100.00
20013;BME280;10167;42.852;23.042;2024-01-27T02:41:11;95318.84;;;3.44;100.00
20013;BME280;10167;42.852;23.042;2024-01-27T02:43:40;95319.69;;;3.44;100.00
20013;BME280;10167;42.852;23.042;2024-01-27T02:46:11;95324.91;;;3.44;100.00
20013;BME280;10167;42.852;23.042;2024-01-27T02:48:44;95329.88;;;3.39;100.00
20013;BME280;10167;42.852;23.042;2024-01-27T02:51:19;95322.22;;;3.38;100.00
20013;BME280;10167;42.852;23.042;2024-01-27T02:53:49;95331.31;;;3.42;100.00
20013;BME280;10167;42.852;23.042;2024-01-27T02:56:21;95333.28;;;3.40;100.00
20013;BME280;10167;42.852;23.042;2024-01-27T02:58:50;95336.84;;;3.47;100.00
20013;BME280;10167;42.852;23.042;2024-01-27T03:01:21;95327.47;;;3.38;100.00
20013;BME280;10167;42.852;23.042;2024-01-27T03:03:51;95333.56;;;3.30;100.00
20013;BME280;10167;42.852;23.042;2024-01-27T03:06:21;95334.31;;;3.24;100.00
20013;BME280;10167;42.852;23.042;2024-01-27T03:08:51;95334.28;;;3.09;100.00
20013;BME280;10167;42.852;23.042;2024-01-27T03:11:24;95322.66;;;2.97;100.00
20013;BME280;10167;42.852;23.042;2024-01-27T03:13:54;95328.50;;;2.84;100.00
20013;BME280;10167;42.852;23.042;2024-01-27T03:16:23;95331.84;;;2.78;100.00
20013;BME280;10167;42.852;23.042;2024-01-27T03:18:53;95328.84;;;2.67;100.00
20013;BME280;10167;42.852;23.042;2024-01-27T03:21:25;95323.69;;;2.59;100.00
20013;BME280;10167;42.852;23.042;2024-01-27T03:23:55;95328.78;;;2.52;100.00
20013;BME280;10167;42.852;23.042;2024-01-27T03:26:27;95326.81;;;2.54;100.00
20013;BME280;10167;42.852;23.042;2024-01-27T03:28:57;95318.88;;;2.47;100.00
20013;BME280;10167;42.852;23.042;2024-01-27T03:31:30;95317.09;;;2.48;100.00
20013;BME280;10167;42.852;23.042;2024-01-27T03:34:00;95301.75;;;2.45;100.00
20013;BME280;10167;42.852;23.042;2024-01-27T03:36:30;95303.53;;;2.44;100.00
20013;BME280;10167;42.852;23.042;2024-01-27T03:39:00;95288.56;;;2.38;100.00
20013;BME280;10167;42.852;23.042;2024-01-27T03:41:32;95290.34;;;2.38;100.00
20013;BME280;10167;42.852;23.042;2024-01-27T03:44:02;95293.03;;;2.30;100.00
20013;BME280;10167;42.852;23.042;2024-01-27T03:46:31;95300.00;;;2.37;100.00
20013;BME280;10167;42.852;23.042;2024-01-27T03:49:01;95301.56;;;2.46;100.00
20013;BME280;10167;42.852;23.042;2024-01-27T03:51:31;95289.13;;;2.48;100.00
20013;BME280;10167;42.852;23.042;2024-01-27T03:54:01;95292.75;;;2.47;100.00
20013;BME280;10167;42.852;23.042;2024-01-27T03:56:30;95296.34;;;2.61;100.00
20013;BME280;10167;42.852;23.042;2024-01-27T03:59:02;95306.34;;;2.43;100.00
20013;BME280;10167;42.852;23.042;2024-01-27T04:01:34;95300.22;;;2.50;100.00
20013;BME280;10167;42.852;23.042;2024-01-27T04:04:04;95303.13;;;2.55;100.00
20013;BME280;10167;42.852;23.042;2024-01-27T04:06:36;95308.63;;;2.61;100.00
20013;BME280;10167;42.852;23.042;2024-01-27T04:09:07;95309.63;;;2.60;100.00
20013;BME280;10167;42.852;23.042;2024-01-27T04:11:38;95301.50;;;2.54;100.00
20013;BME280;10167;42.852;23.042;2024-01-27T04:14:10;95294.81;;;2.52;100.00
20013;BME280;10167;42.852;23.042;2024-01-27T04:16:39;95301.41;;;2.48;100.00
20013;BME280;10167;42.852;23.042;2024-01-27T04:19:10;95295.53;;;2.46;100.00
20013;BME280;10167;42.852;23.042;2024-01-27T04:21:40;95284.66;;;2.57;100.00
20013;BME280;10167;42.852;23.042;2024-01-27T04:24:10;95288.13;;;2.49;100.00
20013;BME280;10167;42.852;23.042;2024-01-27T04:26:40;95298.25;;;2.52;100.00
20013;BME280;10167;42.852;23.042;2024-01-27T04:29:12;95292.09;;;2.60;100.00
20013;BME280;10167;42.852;23.042;2024-01-27T04:31:43;95288.44;;;2.69;100.00
20013;BME280;10167;42.852;23.042;2024-01-27T04:34:13;95283.56;;;2.66;100.00
20013;BME280;10167;42.852;23.042;2024-01-27T04:36:43;95282.75;;;2.66;100.00
20013;BME280;10167;42.852;23.042;2024-01-27T04:39:14;95276.88;;;2.64;100.00
20013;BME280;10167;42.852;23.042;2024-01-27T04:41:44;95278.25;;;2.74;100.00
20013;BME280;10167;42.852;23.042;2024-01-27T04:44:15;95291.31;;;2.74;100.00
20013;BME280;10167;42.852;23.042;2024-01-27T04:46:44;95297.84;;;2.78;100.00
20013;BME280;10167;42.852;23.042;2024-01-27T04:49:15;95300.97;;;2.74;100.00
20013;BME280;10167;42.852;23.042;2024-01-27T04:51:45;95296.22;;;2.77;100.00
20013;BME280;10167;42.852;23.042;2024-01-27T04:54:15;95295.88;;;2.80;100.00
20013;BME280;10167;42.852;23.042;2024-01-27T04:56:45;95302.72;;;2.81;100.00
20013;BME280;10167;42.852;23.042;2024-01-27T04:59:17;95299.63;;;2.78;100.00
20013;BME280;10167;42.852;23.042;2024-01-27T05:01:47;95300.63;;;2.77;100.00
20013;BME280;10167;42.852;23.042;2024-01-27T05:04:17;95305.03;;;2.76;100.00
20013;BME280;10167;42.852;23.042;2024-01-27T05:06:47;95312.25;;;2.74;100.00
20013;BME280;10167;42.852;23.042;2024-01-27T05:09:19;95313.84;;;2.61;100.00
20013;BME280;10167;42.852;23.042;2024-01-27T05:11:49;95314.38;;;2.56;100.00
20013;BME280;10167;42.852;23.042;2024-01-27T05:14:22;95319.97;;;2.53;100.00
20013;BME280;10167;42.852;23.042;2024-01-27T05:16:52;95326.91;;;2.61;100.00
20013;BME280;10167;42.852;23.042;2024-01-27T05:19:22;95322.41;;;2.54;100.00
20013;BME280;10167;42.852;23.042;2024-01-27T05:21:52;95320.88;;;2.60;100.00
20013;BME280;10167;42.852;23.042;2024-01-27T05:24:22;95320.44;;;2.57;100.00
20013;BME280;10167;42.852;23.042;2024-01-27T05:26:52;95319.72;;;2.63;100.00
20013;BME280;10167;42.852;23.042;2024-01-27T05:29:24;95316.09;;;2.64;100.00
20013;BME280;10167;42.852;23.042;2024-01-27T05:31:54;95324.31;;;2.61;100.00
20013;BME280;10167;42.852;23.042;2024-01-27T05:34:24;95329.13;;;2.49;100.00
20013;BME280;10167;42.852;23.042;2024-01-27T05:36:54;95328.53;;;2.62;100.00
20013;BME280;10167;42.852;23.042;2024-01-27T05:39:23;95336.56;;;2.60;100.00
20013;BME280;10167;42.852;23.042;2024-01-27T05:41:55;95342.44;;;2.62;100.00
20013;BME280;10167;42.852;23.042;2024-01-27T05:44:27;95345.50;;;2.66;100.00
20013;BME280;10167;42.852;23.042;2024-01-27T05:46:56;95352.63;;;2.72;100.00
20013;BME280;10167;42.852;23.042;2024-01-27T05:49:27;95341.09;;;2.66;100.00
20013;BME280;10167;42.852;23.042;2024-01-27T05:51:56;95328.66;;;2.68;100.00
20013;BME280;10167;42.852;23.042;2024-01-27T05:54:26;95335.22;;;2.64;100.00
20013;BME280;10167;42.852;23.042;2024-01-27T05:56:58;95349.09;;;2.65;100.00
20013;BME280;10167;42.852;23.042;2024-01-27T05:59:32;95340.34;;;2.58;100.00
20013;BME280;10167;42.852;23.042;2024-01-27T06:02:02;95336.81;;;2.50;100.00
20013;BME280;10167;42.852;23.042;2024-01-27T06:04:32;95351.22;;;2.46;100.00
20013;BME280;10167;42.852;23.042;2024-01-27T06:07:04;95359.75;;;2.40;100.00
20013;BME280;10167;42.852;23.042;2024-01-27T06:09:33;95352.38;;;2.44;100.00
20013;BME280;10167;42.852;23.042;2024-01-27T06:12:05;95364.81;;;2.42;100.00
20013;BME280;10167;42.852;23.042;2024-01-27T06:14:36;95364.47;;;2.45;100.00
20013;BME280;10167;42.852;23.042;2024-01-27T06:17:06;95369.34;;;2.48;100.00
20013;BME280;10167;42.852;23.042;2024-01-27T06:19:38;95367.00;;;2.53;100.00
20013;BME280;10167;42.852;23.042;2024-01-27T06:22:08;95368.81;;;2.52;100.00
20013;BME280;10167;42.852;23.042;2024-01-27T06:24:42;95366.84;;;2.54;100.00
20013;BME280;10167;42.852;23.042;2024-01-27T06:27:13;95370.91;;;2.57;100.00
20013;BME280;10167;42.852;23.042;2024-01-27T06:29:45;95359.91;;;2.62;100.00
20013;BME280;10167;42.852;23.042;2024-01-27T06:32:15;95360.56;;;2.64;100.00
20013;BME280;10167;42.852;23.042;2024-01-27T06:34:45;95371.31;;;2.69;100.00
20013;BME280;10167;42.852;23.042;2024-01-27T06:37:15;95367.81;;;2.76;100.00
20013;BME280;10167;42.852;23.042;2024-01-27T06:39:50;95346.63;;;2.86;100.00
20013;BME280;10167;42.852;23.042;2024-01-27T06:42:23;95346.53;;;2.94;100.00
20013;BME280;10167;42.852;23.042;2024-01-27T06:44:55;95343.56;;;2.97;100.00
20013;BME280;10167;42.852;23.042;2024-01-27T06:47:25;95345.66;;;3.02;100.00
20013;BME280;10167;42.852;23.042;2024-01-27T06:49:55;95339.28;;;3.04;100.00
20013;BME280;10167;42.852;23.042;2024-01-27T06:52:25;95352.25;;;3.12;100.00
20013;BME280;10167;42.852;23.042;2024-01-27T06:54:56;95339.19;;;3.27;100.00
20013;BME280;10167;42.852;23.042;2024-01-27T06:57:27;95342.06;;;3.32;100.00
20013;BME280;10167;42.852;23.042;2024-01-27T06:59:59;95335.03;;;3.33;100.00
20013;BME280;10167;42.852;23.042;2024-01-27T07:02:31;95340.25;;;3.18;100.00
20013;BME280;10167;42.852;23.042;2024-01-27T07:05:03;95349.56;;;3.20;100.00
20013;BME280;10167;42.852;23.042;2024-01-27T07:07:35;95349.84;;;3.25;100.00
20013;BME280;10167;42.852;23.042;2024-01-27T07:10:07;95363.09;;;3.24;100.00
20013;BME280;10167;42.852;23.042;2024-01-27T07:12:37;95379.88;;;3.29;100.00
20013;BME280;10167;42.852;23.042;2024-01-27T07:15:11;95381.03;;;3.12;100.00
20013;BME280;10167;42.852;23.042;2024-01-27T07:17:42;95391.41;;;3.20;100.00
20013;BME280;10167;42.852;23.042;2024-01-27T07:20:13;95394.75;;;3.29;100.00
20013;BME280;10167;42.852;23.042;2024-01-27T07:22:43;95400.09;;;3.36;100.00
20013;BME280;10167;42.852;23.042;2024-01-27T07:25:14;95397.22;;;3.45;100.00
20013;BME280;10167;42.852;23.042;2024-01-27T07:27:45;95406.53;;;3.48;100.00
20013;BME280;10167;42.852;23.042;2024-01-27T07:30:16;95403.09;;;3.47;100.00
20013;BME280;10167;42.852;23.042;2024-01-27T07:32:47;95408.31;;;3.62;100.00
20013;BME280;10167;42.852;23.042;2024-01-27T07:35:16;95410.22;;;3.68;100.00
20013;BME280;10167;42.852;23.042;2024-01-27T07:37:47;95417.72;;;3.71;100.00
20013;BME280;10167;42.852;23.042;2024-01-27T07:40:19;95422.75;;;3.73;100.00
20013;BME280;10167;42.852;23.042;2024-01-27T07:42:48;95414.72;;;3.74;100.00
20013;BME280;10167;42.852;23.042;2024-01-27T07:45:20;95411.63;;;3.85;100.00
20013;BME280;10167;42.852;23.042;2024-01-27T07:47:53;95426.53;;;3.85;100.00
20013;BME280;10167;42.852;23.042;2024-01-27T07:50:26;95414.28;;;3.71;100.00
20013;BME280;10167;42.852;23.042;2024-01-27T07:52:55;95420.88;;;3.81;100.00
20013;BME280;10167;42.852;23.042;2024-01-27T07:55:25;95441.03;;;3.81;100.00
20013;BME280;10167;42.852;23.042;2024-01-27T07:57:56;95439.75;;;3.77;100.00
20013;BME280;10167;42.852;23.042;2024-01-27T08:00:27;95447.50;;;3.85;100.00
20013;BME280;10167;42.852;23.042;2024-01-27T08:02:57;95454.91;;;3.96;100.00
20013;BME280;10167;42.852;23.042;2024-01-27T08:05:28;95458.63;;;4.01;100.00
20013;BME280;10167;42.852;23.042;2024-01-27T08:07:57;95485.81;;;4.00;100.00
20013;BME280;10167;42.852;23.042;2024-01-27T08:10:27;95481.09;;;4.11;100.00
20013;BME280;10167;42.852;23.042;2024-01-27T08:12:57;95468.47;;;4.14;100.00
20013;BME280;10167;42.852;23.042;2024-01-27T08:15:29;95469.69;;;4.18;100.00
20013;BME280;10167;42.852;23.042;2024-01-27T08:17:59;95457.78;;;4.16;100.00
20013;BME280;10167;42.852;23.042;2024-01-27T08:20:30;95445.69;;;4.15;100.00
20013;BME280;10167;42.852;23.042;2024-01-27T08:22:59;95446.03;;;4.12;100.00
20013;BME280;10167;42.852;23.042;2024-01-27T08:25:33;95441.06;;;4.17;100.00
20013;BME280;10167;42.852;23.042;2024-01-27T08:28:04;95455.53;;;4.13;100.00
20013;BME280;10167;42.852;23.042;2024-01-27T08:30:37;95472.59;;;4.09;100.00
20013;BME280;10167;42.852;23.042;2024-01-27T08:33:07;95436.56;;;4.11;100.00
20013;BME280;10167;42.852;23.042;2024-01-27T08:35:37;95463.28;;;4.21;100.00
20013;BME280;10167;42.852;23.042;2024-01-27T08:38:07;95472.31;;;4.33;100.00
20013;BME280;10167;42.852;23.042;2024-01-27T08:40:38;95473.00;;;4.78;100.00
20013;BME280;10167;42.852;23.042;2024-01-27T08:43:07;95473.31;;;5.10;100.00
20013;BME280;10167;42.852;23.042;2024-01-27T08:45:40;95489.69;;;5.62;100.00
20013;BME280;10167;42.852;23.042;2024-01-27T08:48:10;95498.72;;;6.08;100.00
20013;BME280;10167;42.852;23.042;2024-01-27T08:50:40;95508.47;;;6.21;100.00
20013;BME280;10167;42.852;23.042;2024-01-27T08:53:11;95509.78;;;5.97;100.00
20013;BME280;10167;42.852;23.042;2024-01-27T08:55:43;95516.91;;;5.54;100.00
20013;BME280;10167;42.852;23.042;2024-01-27T08:58:12;95515.50;;;5.30;100.00
20013;BME280;10167;42.852;23.042;2024-01-27T09:00:45;95509.88;;;5.12;100.00
20013;BME280;10167;42.852;23.042;2024-01-27T09:03:15;95511.19;;;5.01;100.00
20013;BME280;10167;42.852;23.042;2024-01-27T09:05:44;95502.19;;;4.89;100.00
20013;BME280;10167;42.852;23.042;2024-01-27T09:08:14;95511.63;;;4.84;100.00
20013;BME280;10167;42.852;23.042;2024-01-27T09:10:46;95509.28;;;4.74;100.00
20013;BME280;10167;42.852;23.042;2024-01-27T09:13:15;95501.72;;;4.64;100.00
20013;BME280;10167;42.852;23.042;2024-01-27T09:15:48;95491.50;;;4.55;100.00
20013;BME280;10167;42.852;23.042;2024-01-27T09:18:21;95505.44;;;4.55;100.00
20013;BME280;10167;42.852;23.042;2024-01-27T09:20:54;95506.56;;;4.46;100.00
20013;BME280;10167;42.852;23.042;2024-01-27T09:23:24;95509.81;;;4.48;100.00
20013;BME280;10167;42.852;23.042;2024-01-27T09:25:54;95504.84;;;4.38;100.00
20013;BME280;10167;42.852;23.042;2024-01-27T09:28:24;95496.59;;;4.42;100.00
20013;BME280;10167;42.852;23.042;2024-01-27T09:30:56;95478.16;;;4.50;100.00
20013;BME280;10167;42.852;23.042;2024-01-27T09:33:25;95472.09;;;4.49;100.00
20013;BME280;10167;42.852;23.042;2024-01-27T09:35:55;95479.66;;;4.59;100.00
20013;BME280;10167;42.852;23.042;2024-01-27T09:38:25;95479.81;;;4.72;100.00
20013;BME280;10167;42.852;23.042;2024-01-27T09:40:55;95486.75;;;4.80;100.00
20013;BME280;10167;42.852;23.042;2024-01-27T09:43:26;95493.56;;;4.95;100.00
20013;BME280;10167;42.852;23.042;2024-01-27T09:46:02;95485.38;;;5.05;100.00
20013;BME280;10167;42.852;23.042;2024-01-27T09:48:32;95481.88;;;4.98;100.00
20013;BME280;10167;42.852;23.042;2024-01-27T09:51:05;95486.81;;;4.86;100.00
20013;BME280;10167;42.852;23.042;2024-01-27T09:53:36;95485.75;;;4.81;100.00
20013;BME280;10167;42.852;23.042;2024-01-27T09:56:06;95495.28;;;4.67;100.00
20013;BME280;10167;42.852;23.042;2024-01-27T09:58:36;95499.88;;;4.80;100.00
20013;BME280;10167;42.852;23.042;2024-01-27T10:01:08;95494.63;;;4.80;100.00
20013;BME280;10167;42.852;23.042;2024-01-27T10:03:40;95488.41;;;4.66;100.00
20013;BME280;10167;42.852;23.042;2024-01-27T10:06:12;95478.28;;;4.63;100.00
20013;BME280;10167;42.852;23.042;2024-01-27T10:08:51;95470.63;;;4.61;100.00
20013;BME280;10167;42.852;23.042;2024-01-27T10:11:23;95490.16;;;4.59;100.00
20013;BME280;10167;42.852;23.042;2024-01-27T10:13:55;95492.41;;;4.62;100.00
20013;BME280;10167;42.852;23.042;2024-01-27T10:16:28;95488.00;;;4.62;100.00
20013;BME280;10167;42.852;23.042;2024-01-27T10:19:00;95483.97;;;4.66;100.00
20013;BME280;10167;42.852;23.042;2024-01-27T10:21:31;95477.56;;;4.69;100.00
20013;BME280;10167;42.852;23.042;2024-01-27T10:24:01;95477.88;;;4.81;100.00
20013;BME280;10167;42.852;23.042;2024-01-27T10:26:35;95481.94;;;4.83;100.00
20013;BME280;10167;42.852;23.042;2024-01-27T10:29:06;95489.38;;;4.80;100.00
20013;BME280;10167;42.852;23.042;2024-01-27T10:31:37;95478.88;;;4.80;100.00
20013;BME280;10167;42.852;23.042;2024-01-27T10:34:08;95489.31;;;4.73;100.00
20013;BME280;10167;42.852;23.042;2024-01-27T10:36:44;95492.94;;;4.72;100.00
20013;BME280;10167;42.852;23.042;2024-01-27T10:39:16;95512.16;;;4.79;100.00
20013;BME280;10167;42.852;23.042;2024-01-27T10:41:47;95511.13;;;4.73;100.00
20013;BME280;10167;42.852;23.042;2024-01-27T10:44:19;95513.75;;;4.59;100.00
20013;BME280;10167;42.852;23.042;2024-01-27T10:46:51;95531.75;;;4.62;100.00
20013;BME280;10167;42.852;23.042;2024-01-27T10:49:24;95523.16;;;4.53;100.00
20013;BME280;10167;42.852;23.042;2024-01-27T10:51:55;95533.84;;;4.52;100.00
20013;BME280;10167;42.852;23.042;2024-01-27T10:54:27;95542.72;;;4.51;100.00
20013;BME280;10167;42.852;23.042;2024-01-27T10:56:58;95548.69;;;4.45;100.00
20013;BME280;10167;42.852;23.042;2024-01-27T10:59:27;95544.44;;;4.58;100.00
20013;BME280;10167;42.852;23.042;2024-01-27T11:02:02;95556.53;;;4.59;100.00
20013;BME280;10167;42.852;23.042;2024-01-27T11:04:35;95556.91;;;4.56;100.00
20013;BME280;10167;42.852;23.042;2024-01-27T11:07:06;95556.44;;;4.53;100.00
20013;BME280;10167;42.852;23.042;2024-01-27T11:09:36;95552.41;;;4.50;100.00
20013;BME280;10167;42.852;23.042;2024-01-27T11:12:07;95570.75;;;4.50;100.00
20013;BME280;10167;42.852;23.042;2024-01-27T11:14:38;95565.25;;;4.45;100.00
20013;BME280;10167;42.852;23.042;2024-01-27T11:17:11;95556.72;;;4.43;100.00
20013;BME280;10167;42.852;23.042;2024-01-27T11:19:42;95561.25;;;4.49;100.00
20013;BME280;10167;42.852;23.042;2024-01-27T11:22:23;95559.81;;;4.47;100.00
20013;BME280;10167;42.852;23.042;2024-01-27T11:25:06;95580.16;;;4.45;100.00
20013;BME280;10167;42.852;23.042;2024-01-27T11:27:37;95562.50;;;4.53;100.00
20013;BME280;10167;42.852;23.042;2024-01-27T11:30:24;95567.03;;;4.59;100.00
20013;BME280;10167;42.852;23.042;2024-01-27T11:33:01;95561.03;;;4.65;100.00
20013;BME280;10167;42.852;23.042;2024-01-27T11:35:31;95575.88;;;4.73;100.00
20013;BME280;10167;42.852;23.042;2024-01-27T11:38:05;95578.94;;;4.77;100.00
20013;BME280;10167;42.852;23.042;2024-01-27T11:40:45;95592.97;;;4.69;100.00
20013;BME280;10167;42.852;23.042;2024-01-27T11:43:15;95598.69;;;4.72;100.00
20013;BME280;10167;42.852;23.042;2024-01-27T11:45:55;95587.03;;;4.60;100.00
20013;BME280;10167;42.852;23.042;2024-01-27T11:48:27;95599.31;;;4.60;100.00
20013;BME280;10167;42.852;23.042;2024-01-27T11:51:05;95604.00;;;4.64;100.00
20013;BME280;10167;42.852;23.042;2024-01-27T11:53:36;95606.47;;;4.66;100.00
20013;BME280;10167;42.852;23.042;2024-01-27T11:56:07;95607.03;;;4.61;100.00
20013;BME280;10167;42.852;23.042;2024-01-27T11:58:36;95619.56;;;4.66;100.00
20013;BME280;10167;42.852;23.042;2024-01-27T12:01:05;95612.97;;;4.55;100.00
20013;BME280;10167;42.852;23.042;2024-01-27T12:03:38;95619.31;;;4.61;100.00
20013;BME280;10167;42.852;23.042;2024-01-27T12:06:12;95612.16;;;4.69;100.00
20013;BME280;10167;42.852;23.042;2024-01-27T12:08:42;95619.84;;;4.71;100.00
20013;BME280;10167;42.852;23.042;2024-01-27T12:11:16;95619.69;;;4.58;100.00
20013;BME280;10167;42.852;23.042;2024-01-27T12:13:53;95620.84;;;4.70;100.00
20013;BME280;10167;42.852;23.042;2024-01-27T12:16:23;95616.53;;;4.62;100.00
20013;BME280;10167;42.852;23.042;2024-01-27T12:18:54;95615.94;;;4.67;100.00
20013;BME280;10167;42.852;23.042;2024-01-27T12:21:24;95605.28;;;4.54;100.00
20013;BME280;10167;42.852;23.042;2024-01-27T12:23:55;95610.81;;;4.44;100.00
20013;BME280;10167;42.852;23.042;2024-01-27T12:26:29;95604.47;;;4.53;100.00
20013;BME280;10167;42.852;23.042;2024-01-27T12:28:59;95603.13;;;4.43;100.00
20013;BME280;10167;42.852;23.042;2024-01-27T12:31:30;95611.91;;;4.50;100.00
20013;BME280;10167;42.852;23.042;2024-01-27T12:34:02;95602.13;;;4.58;100.00
20013;BME280;10167;42.852;23.042;2024-01-27T12:36:32;95610.72;;;4.67;100.00
20013;BME280;10167;42.852;23.042;2024-01-27T12:39:03;95603.41;;;4.62;100.00
20013;BME280;10167;42.852;23.042;2024-01-27T12:41:33;95595.97;;;4.66;100.00
20013;BME280;10167;42.852;23.042;2024-01-27T12:44:03;95601.38;;;4.79;100.00
20013;BME280;10167;42.852;23.042;2024-01-27T12:46:32;95594.47;;;4.93;100.00
20013;BME280;10167;42.852;23.042;2024-01-27T12:49:04;95597.75;;;4.95;100.00
20013;BME280;10167;42.852;23.042;2024-01-27T12:51:34;95594.84;;;4.90;100.00
20013;BME280;10167;42.852;23.042;2024-01-27T12:54:05;95591.50;;;4.96;100.00
20013;BME280;10167;42.852;23.042;2024-01-27T12:56:36;95599.81;;;5.21;100.00
20013;BME280;10167;42.852;23.042;2024-01-27T12:59:07;95594.16;;;5.38;100.00
20013;BME280;10167;42.852;23.042;2024-01-27T13:01:36;95589.63;;;5.32;100.00
20013;BME280;10167;42.852;23.042;2024-01-27T13:04:09;95601.13;;;5.31;100.00
20013;BME280;10167;42.852;23.042;2024-01-27T13:06:39;95599.22;;;5.40;100.00
20013;BME280;10167;42.852;23.042;2024-01-27T13:09:10;95610.72;;;5.39;100.00